Boynton Beach, Florida
Current Conditions -  °F | °C
As of 10:53 PM on Friday 19 Dec 2014 (Local Time) from KBCT Reporting Station
Broken Clouds Broken Clouds  
Wind Chill: 21°   Ceiling: 4000
Heat Index: 21°   Visibility: 10mi
Dew Point: 16°   Wind: 5mph
Humidity: 73%   Direction: NA
Pressure: 30.08"   Gusts: NA
Location:  26.53°N, 80.06°W
Report Text: KBCT 200353Z VRB04KT 10SM SCT030 BKN040 BKN045 21/16 A3008 RMK LAST
Loading
Personal Weather Stations






























Interactive Weather Map New forecast layout! Learn more

10-Day Weather Forecast

Advertisements
Track Severe Weather on mobile